Time;durP1;ratioP1;P1;durP2;ratioP2;P2;SDS_P1;SDS_P2;PMS_P1;PMS_P2;Temp;Humidity;BMP_temperature;BMP_pressure;BME280_temperature;BME280_humidity;BME280_pressure;Samples;Min_cycle;Max_cycle;Signal;HPM_P1;HPM_P2
2021/07/08 00:03:52;;;;;;;4.15;3.75;;;22.00;69.00;;;;;;10419923;28;20029;-47
2021/07/08 00:08:53;;;;;;;3.90;3.50;;;22.00;69.00;;;;;;10420713;28;20034;-46
2021/07/08 00:13:54;;;;;;;4.95;4.35;;;22.00;68.90;;;;;;10421216;28;20025;-43
2021/07/08 00:18:54;;;;;;;4.07;3.60;;;22.00;69.00;;;;;;10420221;28;20474;-46
2021/07/08 00:23:55;;;;;;;4.03;3.63;;;22.00;68.90;;;;;;10425114;28;20121;-44
2021/07/08 00:28:56;;;;;;;5.03;3.42;;;22.00;68.90;;;;;;10409525;28;20477;-47
2021/07/08 00:34:01;;;;;;;4.43;3.58;;;21.90;68.90;;;;;;10416287;28;20032;-49
2021/07/08 00:39:02;;;;;;;3.38;3.08;;;21.90;68.90;;;;;;10418416;28;20037;-44
2021/07/08 00:44:03;;;;;;;3.63;3.33;;;21.90;68.80;;;;;;10419917;28;20129;-43
2021/07/08 00:49:04;;;;;;;3.80;3.28;;;21.90;68.80;;;;;;10419265;28;20574;-44
2021/07/08 00:54:04;;;;;;;3.83;3.42;;;21.90;68.90;;;;;;10418612;28;20032;-44
2021/07/08 00:59:08;;;;;;;4.07;3.67;;;21.90;68.80;;;;;;10418902;28;20104;-44
2021/07/08 01:04:10;;;;;;;3.70;3.30;;;21.90;68.80;;;;;;10418073;28;20040;-43
2021/07/08 01:09:13;;;;;;;3.53;3.08;;;21.90;68.80;;;;;;10418663;28;20113;-43
2021/07/08 01:14:14;;;;;;;4.15;3.25;;;21.90;68.80;;;;;;10418815;28;20545;-44
2021/07/08 01:19:15;;;;;;;3.78;3.30;;;21.90;68.80;;;;;;10419703;28;20046;-44
2021/07/08 01:24:16;;;;;;;4.35;3.83;;;21.90;68.80;;;;;;10418440;28;20029;-44
2021/07/08 01:29:16;;;;;;;3.97;3.53;;;21.90;68.80;;;;;;10418010;28;20044;-44
2021/07/08 01:34:17;;;;;;;3.58;3.15;;;21.90;69.40;;;;;;10415595;28;20025;-43
2021/07/08 01:39:19;;;;;;;4.32;3.60;;;21.90;68.80;;;;;;10417408;28;20108;-45
2021/07/08 01:44:20;;;;;;;4.38;3.97;;;21.90;68.80;;;;;;10416459;28;20379;-44
2021/07/08 01:49:20;;;;;;;3.25;2.95;;;21.90;68.80;;;;;;10417486;28;20033;-46
2021/07/08 01:54:21;;;;;;;3.42;2.90;;;21.80;68.70;;;;;;10416136;28;20113;-44
2021/07/08 01:59:22;;;;;;;3.40;3.10;;;21.90;68.80;;;;;;10416982;28;20057;-44
2021/07/08 02:04:23;;;;;;;3.45;3.15;;;21.80;68.80;;;;;;10416450;28;20029;-43
2021/07/08 02:09:24;;;;;;;3.45;3.15;;;21.90;68.80;;;;;;10416279;28;20038;-43
2021/07/08 02:14:26;;;;;;;4.25;3.85;;;21.80;68.80;;;;;;10415189;28;20032;-44
2021/07/08 02:19:27;;;;;;;3.30;2.95;;;21.80;68.70;;;;;;10419540;28;20082;-44
2021/07/08 02:24:27;;;;;;;4.28;3.88;;;21.80;68.70;;;;;;10423678;28;20601;-44
2021/07/08 02:29:28;;;;;;;3.67;3.38;;;21.80;68.80;;;;;;10415716;28;20037;-44
2021/07/08 02:34:29;;;;;;;4.45;3.33;;;21.80;68.70;;;;;;10411882;28;20065;-46
2021/07/08 02:39:29;;;;;;;3.17;2.88;;;21.80;68.70;;;;;;10415609;28;20105;-45
2021/07/08 02:44:31;;;;;;;3.30;2.97;;;21.80;68.70;;;;;;10414489;28;20049;-47
2021/07/08 02:49:32;;;;;;;3.85;3.30;;;21.80;68.70;;;;;;10415146;28;20104;-47
2021/07/08 02:54:34;;;;;;;4.03;3.50;;;21.80;68.70;;;;;;10413768;28;20037;-46
2021/07/08 02:59:34;;;;;;;3.85;3.45;;;21.80;68.70;;;;;;10414862;28;20075;-47
2021/07/08 03:04:36;;;;;;;3.67;3.38;;;21.80;68.70;;;;;;10412803;28;20029;-45
2021/07/08 03:09:36;;;;;;;3.80;2.97;;;21.80;68.80;;;;;;10414530;28;20474;-44
2021/07/08 03:14:37;;;;;;;3.58;3.05;;;21.80;68.80;;;;;;10396934;28;20108;-48
2021/07/08 03:19:38;;;;;;;3.25;2.95;;;21.80;68.70;;;;;;10419050;28;20028;-44
2021/07/08 03:24:38;;;;;;;3.22;2.92;;;21.80;68.70;;;;;;10418032;28;20025;-47
2021/07/08 03:29:39;;;;;;;3.42;3.13;;;21.70;68.70;;;;;;10420532;28;20112;-45
2021/07/08 03:34:41;;;;;;;3.95;3.22;;;21.70;68.70;;;;;;10417495;28;20036;-45
2021/07/08 03:39:41;;;;;;;3.60;3.28;;;21.70;68.70;;;;;;10422297;28;20029;-45
2021/07/08 03:44:42;;;;;;;4.55;3.25;;;21.70;68.70;;;;;;10420946;28;20053;-45
2021/07/08 03:49:43;;;;;;;4.20;3.33;;;21.70;68.70;;;;;;10420325;28;20132;-44
2021/07/08 03:54:43;;;;;;;3.63;3.33;;;21.70;68.70;;;;;;10420582;28;20385;-47
2021/07/08 03:59:44;;;;;;;4.20;2.95;;;21.70;68.70;;;;;;10420965;28;20456;-43
2021/07/08 04:04:45;;;;;;;3.47;3.17;;;21.70;68.60;;;;;;10420405;28;20026;-47
2021/07/08 04:09:46;;;;;;;3.33;3.03;;;21.70;68.70;;;;;;10420844;28;20026;-45
2021/07/08 04:14:46;;;;;;;3.72;3.20;;;21.70;68.70;;;;;;10417711;28;20529;-44
2021/07/08 04:19:47;;;;;;;3.40;3.10;;;21.70;68.70;;;;;;10426671;28;20095;-45
2021/07/08 04:24:48;;;;;;;4.05;3.13;;;21.70;68.70;;;;;;10423861;28;20042;-44
2021/07/08 04:29:48;;;;;;;3.72;3.42;;;21.70;68.80;;;;;;10407456;28;20025;-45
2021/07/08 04:34:49;;;;;;;4.03;3.63;;;21.70;68.80;;;;;;10418688;28;20034;-48
2021/07/08 04:39:50;;;;;;;3.22;2.92;;;21.60;68.80;;;;;;10419241;28;20033;-45
2021/07/08 04:44:50;;;;;;;3.83;3.50;;;21.70;68.90;;;;;;10418787;28;20082;-46
2021/07/08 04:49:51;;;;;;;3.65;3.35;;;21.70;68.90;;;;;;10418139;28;20071;-45
2021/07/08 04:54:52;;;;;;;3.53;3.22;;;21.60;68.80;;;;;;10418086;28;20384;-45
2021/07/08 04:59:53;;;;;;;3.88;3.47;;;21.70;68.80;;;;;;10418216;28;20061;-44
2021/07/08 05:04:53;;;;;;;6.85;3.88;;;21.70;68.80;;;;;;10417519;28;20474;-55
2021/07/08 05:09:54;;;;;;;7.63;3.67;;;21.70;69.20;;;;;;10417638;28;20061;-54
2021/07/08 05:14:54;;;;;;;7.82;3.72;;;21.70;70.00;;;;;;10429783;28;20128;-51
2021/07/08 05:19:55;;;;;;;7.85;3.15;;;21.70;69.80;;;;;;10421111;28;20068;-55
2021/07/08 05:24:56;;;;;;;6.18;3.63;;;21.70;70.00;;;;;;10418026;28;20520;-54
2021/07/08 05:29:57;;;;;;;7.97;3.53;;;21.80;70.30;;;;;;10416335;28;20376;-55
2021/07/08 05:34:58;;;;;;;5.28;3.42;;;21.80;70.30;;;;;;10417454;28;20036;-54
2021/07/08 05:39:59;;;;;;;8.10;3.95;;;21.80;70.40;;;;;;10416792;28;20039;-55
2021/07/08 05:44:59;;;;;;;6.10;3.78;;;21.80;70.50;;;;;;10402578;28;20499;-50
2021/07/08 05:50:00;;;;;;;13.52;4.45;;;21.80;70.50;;;;;;10415644;28;20104;-51
2021/07/08 05:55:02;;;;;;;9.52;3.90;;;21.90;70.80;;;;;;10415488;28;20063;-55
2021/07/08 06:00:04;;;;;;;7.72;3.63;;;21.80;70.80;;;;;;10416183;28;20029;-52
2021/07/08 06:05:06;;;;;;;12.48;3.88;;;21.80;70.50;;;;;;10416600;28;20037;-55
2021/07/08 06:10:08;;;;;;;12.23;3.90;;;21.80;70.50;;;;;;10415956;28;20485;-56
2021/07/08 06:15:09;;;;;;;8.02;3.78;;;21.80;70.40;;;;;;10415111;28;20029;-53
2021/07/08 06:20:11;;;;;;;6.32;3.53;;;21.80;70.30;;;;;;10421226;28;20032;-51
2021/07/08 06:25:13;;;;;;;6.38;3.90;;;21.80;70.20;;;;;;10401260;28;20044;-53
2021/07/08 06:30:15;;;;;;;3.90;3.40;;;21.80;70.10;;;;;;10410396;28;20125;-54
2021/07/08 06:35:18;;;;;;;5.47;3.72;;;21.80;70.00;;;;;;10413211;28;20087;-53
2021/07/08 06:40:19;;;;;;;4.43;3.67;;;21.80;70.10;;;;;;10413009;28;20049;-53
2021/07/08 06:45:20;;;;;;;5.22;3.90;;;21.80;70.00;;;;;;10414548;28;20026;-52
2021/07/08 06:50:21;;;;;;;7.25;4.13;;;21.80;70.00;;;;;;10414839;28;20064;-53
2021/07/08 06:55:22;;;;;;;4.13;3.40;;;21.80;69.80;;;;;;10414686;28;20029;-53
2021/07/08 07:00:30;;;;;;;3.83;3.17;;;21.80;69.80;;;;;;10414458;28;20043;-53
2021/07/08 07:05:31;;;;;;;4.57;3.47;;;21.80;69.80;;;;;;10414503;28;20029;-53
2021/07/08 07:10:32;;;;;;;6.68;3.55;;;21.80;69.80;;;;;;10414099;28;20025;-53
2021/07/08 07:15:33;;;;;;;6.47;4.07;;;21.80;69.90;;;;;;10414173;28;20171;-54
2021/07/08 07:20:34;;;;;;;4.50;3.60;;;21.80;69.90;;;;;;10417714;28;20065;-53
2021/07/08 07:25:40;;;;;;;4.50;3.47;;;21.80;69.90;;;;;;10413646;28;20129;-54
2021/07/08 07:30:41;;;;;;;3.88;3.17;;;21.80;69.90;;;;;;10413929;28;20029;-54
2021/07/08 07:35:41;;;;;;;4.47;3.53;;;21.80;69.90;;;;;;10412640;28;20029;-54
2021/07/08 07:40:43;;;;;;;5.38;3.83;;;21.80;69.80;;;;;;10413422;28;20060;-54
2021/07/08 07:45:43;;;;;;;5.35;3.33;;;21.80;69.80;;;;;;10413785;28;20057;-54
2021/07/08 07:50:45;;;;;;;5.75;3.35;;;21.80;69.80;;;;;;10413782;28;20053;-54
2021/07/08 07:55:45;;;;;;;4.68;3.58;;;21.90;70.40;;;;;;10413801;28;20409;-54
2021/07/08 08:00:47;;;;;;;3.75;3.25;;;21.80;69.80;;;;;;10413523;28;20029;-54
2021/07/08 08:08:27;;;;;;;3.83;3.25;;;21.90;69.80;;;;;;10413289;28;20025;-53
2021/07/08 08:11:21;;;;;;;4.10;3.70;;;21.90;69.80;;;;;;10413289;28;20037;-54
2021/07/08 08:16:21;;;;;;;5.22;3.80;;;21.90;69.80;;;;;;10420768;28;20040;-56
2021/07/08 08:21:22;;;;;;;4.70;3.15;;;21.90;69.80;;;;;;10427986;28;20034;-56
2021/07/08 08:26:24;;;;;;;3.78;3.05;;;21.90;69.80;;;;;;10420346;28;20115;-56
2021/07/08 08:31:24;;;;;;;4.50;3.35;;;21.90;69.80;;;;;;10420598;28;20026;-56
2021/07/08 08:36:25;;;;;;;3.80;3.22;;;21.90;69.70;;;;;;10420073;28;20061;-55
2021/07/08 08:41:26;;;;;;;5.38;3.67;;;21.90;69.70;;;;;;10419753;28;20077;-54
2021/07/08 08:46:27;;;;;;;4.07;3.58;;;21.90;69.70;;;;;;10419664;28;20036;-55
2021/07/08 08:51:29;;;;;;;5.28;3.72;;;22.00;69.70;;;;;;10418158;28;20048;-56
2021/07/08 08:56:30;;;;;;;3.95;2.67;;;21.90;69.70;;;;;;10419766;28;20025;-54
2021/07/08 09:01:30;;;;;;;3.50;3.00;;;22.00;69.70;;;;;;10419321;28;20026;-56
2021/07/08 09:06:38;;;;;;;3.88;3.47;;;22.00;69.70;;;;;;10419042;28;20032;-56
2021/07/08 09:11:39;;;;;;;3.92;3.20;;;21.90;69.60;;;;;;10418641;28;20026;-56
2021/07/08 09:16:41;;;;;;;3.85;3.30;;;22.00;69.70;;;;;;10418619;28;20029;-56
2021/07/08 09:21:47;;;;;;;3.30;2.85;;;22.00;69.60;;;;;;10426954;28;20040;-57
2021/07/08 09:27:09;;;;;;;3.53;2.90;;;22.00;69.70;;;;;;10417121;28;20036;-55
2021/07/08 09:32:17;;;;;;;4.82;3.40;;;21.90;69.60;;;;;;10418215;28;20033;-57
2021/07/08 09:37:38;;;;;;;4.63;3.10;;;22.00;69.70;;;;;;10418271;28;20109;-57
2021/07/08 09:42:43;;;;;;;4.30;2.90;;;22.00;69.70;;;;;;10417344;28;20065;-57
2021/07/08 09:47:46;;;;;;;3.72;3.20;;;22.00;69.60;;;;;;10417444;28;20398;-57
2021/07/08 09:53:15;;;;;;;4.70;3.10;;;21.90;69.60;;;;;;10407169;28;20048;-56
2021/07/08 09:58:16;;;;;;;;;;;22.00;70.20;;;;;;10417444;28;20033;-57
2021/07/08 10:03:18;;;;;;;4.22;3.10;;;22.00;69.70;;;;;;10416699;28;19921;-56
2021/07/08 10:08:21;;;;;;;3.58;3.15;;;22.00;69.60;;;;;;10415478;28;20402;-57
2021/07/08 10:13:22;;;;;;;3.47;2.78;;;22.00;69.60;;;;;;10416691;28;20022;-56
2021/07/08 10:18:24;;;;;;;3.33;3.03;;;22.00;69.60;;;;;;10416252;28;20061;-55
2021/07/08 10:23:26;;;;;;;3.25;2.75;;;22.00;69.60;;;;;;10416439;28;20033;-57
2021/07/08 10:28:34;;;;;;;3.72;2.95;;;22.00;69.50;;;;;;10415791;28;20029;-56
2021/07/08 10:33:34;;;;;;;2.88;2.58;;;22.00;69.50;;;;;;10415753;28;20099;-57
2021/07/08 10:38:40;;;;;;;3.85;2.47;;;22.00;69.60;;;;;;10415180;28;20535;-56
2021/07/08 10:43:43;;;;;;;3.53;3.22;;;22.00;69.60;;;;;;10415116;28;20073;-57
2021/07/08 10:48:50;;;;;;;3.60;2.85;;;22.00;69.60;;;;;;10415179;28;20498;-57
2021/07/08 10:53:51;;;;;;;3.53;2.60;;;22.00;69.60;;;;;;10414980;28;20028;-57
2021/07/08 10:58:54;;;;;;;3.88;3.28;;;22.00;69.60;;;;;;10389609;28;20029;-56
2021/07/08 11:04:02;;;;;;;4.47;3.03;;;22.00;69.60;;;;;;10414328;28;20060;-57
2021/07/08 11:09:18;;;;;;;3.25;2.80;;;22.00;69.50;;;;;;10414699;28;20063;-57
2021/07/08 11:14:20;;;;;;;5.70;3.05;;;22.00;69.50;;;;;;10414349;28;20061;-56
2021/07/08 11:19:20;;;;;;;3.25;2.83;;;22.00;69.50;;;;;;10432254;28;20489;-55
2021/07/08 11:24:30;;;;;;;3.25;2.70;;;22.00;69.50;;;;;;10419716;28;20060;-56
2021/07/08 11:29:54;;;;;;;3.35;3.05;;;22.00;69.50;;;;;;10414250;28;20030;-57
2021/07/08 11:35:17;;;;;;;3.38;2.70;;;22.10;69.60;;;;;;10414263;28;20021;-57
2021/07/08 11:40:20;;;;;;;2.85;2.63;;;22.10;69.60;;;;;;10413937;28;20547;-57
2021/07/08 11:45:26;;;;;;;3.42;2.90;;;22.10;69.60;;;;;;10413674;28;20037;-56
2021/07/08 11:50:32;;;;;;;3.70;3.13;;;22.10;69.60;;;;;;10420404;28;20079;-56
2021/07/08 11:55:35;;;;;;;3.60;3.30;;;22.10;69.60;;;;;;10422000;28;20112;-57
2021/07/08 12:00:46;;;;;;;3.03;2.72;;;22.10;69.60;;;;;;10421632;28;20033;-57
2021/07/08 12:05:47;;;;;;;4.20;2.75;;;22.10;69.60;;;;;;10421626;28;20045;-57
2021/07/08 12:10:53;;;;;;;2.95;2.65;;;22.20;69.50;;;;;;10421150;28;20034;-57
2021/07/08 12:16:01;;;;;;;3.53;2.90;;;22.20;69.60;;;;;;10420019;28;20043;-56
2021/07/08 12:21:16;;;;;;;3.60;2.80;;;22.20;69.60;;;;;;10429223;28;20037;-57
2021/07/08 12:26:25;;;;;;;3.25;2.92;;;22.20;69.50;;;;;;10417540;28;20025;-56
2021/07/08 12:31:49;;;;;;;3.25;2.50;;;22.20;69.50;;;;;;10420440;28;20030;-56
2021/07/08 12:36:51;;;;;;;4.18;2.70;;;22.20;69.50;;;;;;10420062;28;20041;-57
2021/07/08 12:41:52;;;;;;;3.53;2.75;;;22.20;69.50;;;;;;10420207;28;20124;-57
2021/07/08 12:46:54;;;;;;;3.25;2.65;;;22.20;69.50;;;;;;10418501;28;20060;-57
2021/07/08 12:51:55;;;;;;;2.80;2.50;;;22.20;69.80;;;;;;10418842;28;20092;-57
2021/07/08 12:57:14;;;;;;;3.17;2.60;;;22.30;69.50;;;;;;10419248;28;20030;-57
2021/07/08 13:02:25;;;;;;;3.40;2.60;;;22.20;69.50;;;;;;10419477;28;20068;-56
2021/07/08 13:07:25;;;;;;;4.13;2.83;;;22.20;69.50;;;;;;10417897;28;20072;-56
2021/07/08 13:12:26;;;;;;;3.13;2.75;;;22.30;69.50;;;;;;10418839;28;20493;-56
2021/07/08 13:17:32;;;;;;;3.03;2.42;;;22.40;69.50;;;;;;10418504;28;20036;-55
2021/07/08 13:22:44;;;;;;;2.92;2.63;;;22.30;69.30;;;;;;10425582;28;20037;-57
2021/07/08 13:27:48;;;;;;;2.88;2.50;;;22.30;69.40;;;;;;10417033;28;20034;-56
2021/07/08 13:33:10;;;;;;;3.28;2.88;;;22.30;69.40;;;;;;10418659;28;20025;-54
2021/07/08 13:38:19;;;;;;;3.60;3.30;;;22.30;69.30;;;;;;10418307;28;20026;-57
2021/07/08 13:43:19;;;;;;;3.78;3.00;;;22.40;69.40;;;;;;10417553;28;20052;-57
2021/07/08 13:48:20;;;;;;;3.28;2.95;;;22.40;69.40;;;;;;10417335;28;20056;-57
2021/07/08 13:53:20;;;;;;;2.95;2.65;;;22.30;69.30;;;;;;10417407;28;20036;-57
2021/07/08 13:58:21;;;;;;;3.20;2.53;;;22.40;69.40;;;;;;10417017;28;20064;-56
2021/07/08 14:03:23;;;;;;;3.40;2.63;;;22.40;69.30;;;;;;10417273;28;20069;-57
2021/07/08 14:08:29;;;;;;;3.17;2.53;;;22.40;69.40;;;;;;10416652;28;20044;-57
2021/07/08 14:13:29;;;;;;;3.45;2.65;;;22.40;69.30;;;;;;10415710;28;20026;-55
2021/07/08 14:18:30;;;;;;;2.35;2.15;;;22.40;69.30;;;;;;10416318;28;20040;-56
2021/07/08 14:23:31;;;;;;;3.65;2.45;;;22.40;69.30;;;;;;10424988;28;20371;-55
2021/07/08 14:28:32;;;;;;;3.55;3.03;;;22.40;69.30;;;;;;10406954;28;20120;-57
2021/07/08 14:33:34;;;;;;;2.78;2.58;;;22.40;69.30;;;;;;10415575;28;20130;-57
2021/07/08 14:38:36;;;;;;;2.92;2.42;;;22.40;69.20;;;;;;10415519;28;20083;-57
2021/07/08 14:44:04;;;;;;;2.75;2.40;;;22.40;69.20;;;;;;10409758;28;20049;-56
2021/07/08 14:49:05;;;;;;;2.70;2.42;;;22.40;69.30;;;;;;10413687;28;20038;-57
2021/07/08 14:54:06;;;;;;;3.42;2.72;;;22.40;69.20;;;;;;10414972;28;20402;-57
2021/07/08 14:59:07;;;;;;;3.25;2.63;;;22.40;69.30;;;;;;10414686;28;20049;-56
2021/07/08 15:04:08;;;;;;;3.10;2.40;;;22.50;69.20;;;;;;10414949;28;20482;-57
2021/07/08 15:09:08;;;;;;;3.22;2.75;;;22.50;69.30;;;;;;10414457;28;20029;-57
2021/07/08 15:14:09;;;;;;;3.53;2.90;;;22.40;69.20;;;;;;10414677;28;20105;-57
2021/07/08 15:19:10;;;;;;;3.10;2.38;;;22.50;69.30;;;;;;10415481;28;20155;-55
2021/07/08 15:24:10;;;;;;;2.75;2.30;;;22.40;69.20;;;;;;10419721;28;20025;-56
2021/07/08 15:29:11;;;;;;;3.00;2.53;;;22.40;69.80;;;;;;10414174;28;20068;-56
2021/07/08 15:34:14;;;;;;;2.92;2.53;;;22.40;69.20;;;;;;10413770;28;20029;-57
2021/07/08 15:39:15;;;;;;;3.22;2.92;;;22.40;69.20;;;;;;10412772;28;20056;-57
2021/07/08 15:44:16;;;;;;;3.13;2.63;;;22.40;69.20;;;;;;10413838;28;20115;-57
2021/07/08 15:49:17;;;;;;;3.78;3.08;;;22.50;69.20;;;;;;10413773;28;20037;-57
2021/07/08 15:54:17;;;;;;;3.38;3.08;;;22.40;69.20;;;;;;10413847;28;20033;-57
2021/07/08 15:59:23;;;;;;;8.93;3.50;;;22.40;69.20;;;;;;10413800;28;20116;-59
2021/07/08 16:04:24;;;;;;;4.82;2.67;;;22.40;69.40;;;;;;10413771;28;20033;-55
2021/07/08 16:09:24;;;;;;;32.03;5.45;;;22.40;69.10;;;;;;10412580;28;20030;-50
2021/07/08 16:14:25;;;;;;;14.65;4.40;;;22.40;69.40;;;;;;10413515;28;20053;-51
2021/07/08 16:19:26;;;;;;;13.57;5.13;;;22.50;70.10;;;;;;10416425;28;20083;-56
2021/07/08 16:24:27;;;;;;;17.17;5.20;;;22.50;70.40;;;;;;10417845;28;20029;-55
2021/07/08 16:29:27;;;;;;;15.80;4.45;;;22.50;70.20;;;;;;10428439;28;20152;-57
2021/07/08 16:34:28;;;;;;;23.85;5.00;;;22.50;69.70;;;;;;10416553;28;20057;-53
2021/07/08 16:39:29;;;;;;;19.33;6.05;;;22.50;70.20;;;;;;10420699;28;20029;-57
2021/07/08 16:44:29;;;;;;;14.35;4.88;;;22.60;70.40;;;;;;10420106;28;20124;-52
2021/07/08 16:49:30;;;;;;;22.95;6.38;;;22.60;70.10;;;;;;10419237;28;20112;-58
2021/07/08 16:54:30;;;;;;;30.52;7.70;;;22.50;70.10;;;;;;10416058;28;20072;-59
2021/07/08 16:59:34;;;;;;;21.95;6.45;;;22.70;70.40;;;;;;10419460;28;20036;-57
2021/07/08 17:04:35;;;;;;;21.60;6.70;;;22.80;69.90;;;;;;10419487;28;20113;-57
2021/07/08 17:09:36;;;;;;;22.50;5.03;;;22.70;69.80;;;;;;10419193;28;20109;-56
2021/07/08 17:14:39;;;;;;;16.35;6.35;;;22.60;69.90;;;;;;10418385;28;20108;-56
2021/07/08 17:19:40;;;;;;;17.73;5.63;;;22.60;69.90;;;;;;10423291;28;20112;-54
2021/07/08 17:24:40;;;;;;;15.30;5.63;;;22.60;70.00;;;;;;10408358;28;20028;-55
2021/07/08 17:29:41;;;;;;;18.67;6.22;;;22.60;69.90;;;;;;10418490;28;20072;-55
2021/07/08 17:34:42;;;;;;;16.27;5.03;;;22.60;69.90;;;;;;10418283;28;20441;-54
2021/07/08 17:39:44;;;;;;;17.02;5.70;;;22.60;69.90;;;;;;10416706;28;20065;-54
2021/07/08 17:44:46;;;;;;;14.07;5.60;;;22.60;69.90;;;;;;10413081;28;20045;-54
2021/07/08 17:49:47;;;;;;;14.93;5.15;;;22.60;69.80;;;;;;10415618;28;20044;-56
2021/07/08 17:54:47;;;;;;;13.77;5.55;;;22.50;69.70;;;;;;10415084;28;20116;-53
2021/07/08 17:59:48;;;;;;;10.45;4.97;;;22.60;70.10;;;;;;10414197;28;20022;-54
2021/07/08 18:04:49;;;;;;;23.10;4.38;;;22.60;69.80;;;;;;10414368;28;20052;-49
2021/07/08 18:09:50;;;;;;;11.95;4.68;;;22.70;69.90;;;;;;10414192;28;20025;-55
2021/07/08 18:14:52;;;;;;;21.02;5.55;;;22.60;69.90;;;;;;10414080;28;20108;-55
2021/07/08 18:19:53;;;;;;;14.40;4.45;;;22.60;70.10;;;;;;10413276;28;20033;-55
2021/07/08 18:24:54;;;;;;;11.40;4.47;;;22.60;70.10;;;;;;10413995;28;20104;-55
2021/07/08 18:29:54;;;;;;;7.97;3.35;;;22.50;70.00;;;;;;10414259;28;20554;-55
2021/07/08 18:34:55;;;;;;;12.10;4.07;;;22.50;70.00;;;;;;10403666;28;20030;-55
2021/07/08 18:39:56;;;;;;;9.18;4.43;;;22.60;70.90;;;;;;10411522;28;20048;-56
2021/07/08 18:44:57;;;;;;;9.90;4.47;;;22.60;70.60;;;;;;10411160;28;20156;-53
2021/07/08 18:49:57;;;;;;;11.10;5.45;;;22.60;70.70;;;;;;10411086;28;20512;-54
2021/07/08 18:54:58;;;;;;;11.70;4.85;;;22.60;70.80;;;;;;10412508;28;20060;-56
2021/07/08 19:00:00;;;;;;;13.98;5.93;;;22.60;70.80;;;;;;10410978;28;20095;-55
2021/07/08 19:05:00;;;;;;;10.75;4.32;;;22.60;70.90;;;;;;10412118;28;20040;-55
2021/07/08 19:10:01;;;;;;;7.90;4.55;;;22.50;70.80;;;;;;10411298;28;20363;-55
2021/07/08 19:15:07;;;;;;;15.50;4.53;;;22.60;70.80;;;;;;10412175;28;20075;-54
2021/07/08 19:20:09;;;;;;;11.27;4.72;;;22.60;71.70;;;;;;10421041;28;20033;-57
2021/07/08 19:25:11;;;;;;;7.95;3.97;;;22.50;71.70;;;;;;10409326;28;20120;-46
2021/07/08 19:30:16;;;;;;;8.68;3.75;;;22.60;71.40;;;;;;10412575;28;20025;-48
2021/07/08 19:35:19;;;;;;;7.10;4.57;;;22.60;71.70;;;;;;10412813;28;20053;-48
2021/07/08 19:40:23;;;;;;;8.32;4.25;;;22.60;71.10;;;;;;10406949;28;20440;-47
2021/07/08 19:45:27;;;;;;;5.88;3.42;;;22.60;71.00;;;;;;10413068;28;20152;-47
2021/07/08 19:50:28;;;;;;;7.13;3.83;;;22.50;70.60;;;;;;10412536;28;20474;-46
2021/07/08 19:55:29;;;;;;;6.55;4.05;;;22.50;70.70;;;;;;10413171;28;20030;-48
2021/07/08 20:00:31;;;;;;;5.50;3.13;;;22.60;70.70;;;;;;10411761;28;20022;-48
2021/07/08 20:05:32;;;;;;;6.10;3.42;;;22.50;70.50;;;;;;10411127;28;20026;-49
2021/07/08 20:10:32;;;;;;;12.85;3.50;;;22.50;70.60;;;;;;10417301;28;20068;-49
2021/07/08 20:15:33;;;;;;;6.85;4.05;;;22.60;70.60;;;;;;10420862;28;20116;-47
2021/07/08 20:20:34;;;;;;;6.05;3.65;;;22.50;70.40;;;;;;10430526;28;20083;-47
2021/07/08 20:25:34;;;;;;;5.32;3.50;;;22.50;70.40;;;;;;10420405;28;20112;-47
2021/07/08 20:30:36;;;;;;;6.57;3.75;;;22.50;70.40;;;;;;10420825;28;20105;-47
2021/07/08 20:35:37;;;;;;;9.55;3.67;;;22.50;70.40;;;;;;10420568;28;20496;-46
2021/07/08 20:40:38;;;;;;;5.38;3.78;;;22.50;70.40;;;;;;10420057;28;20051;-46
2021/07/08 20:45:39;;;;;;;7.57;3.92;;;22.50;70.30;;;;;;10419932;28;20494;-47
2021/07/08 20:50:40;;;;;;;4.70;3.58;;;22.50;70.30;;;;;;10420051;28;20037;-46
2021/07/08 20:55:41;;;;;;;6.07;3.65;;;22.50;70.30;;;;;;10419911;28;20044;-47
2021/07/08 21:00:42;;;;;;;8.68;4.28;;;22.50;70.80;;;;;;10418215;28;20037;-47
2021/07/08 21:05:42;;;;;;;6.35;4.13;;;22.50;70.20;;;;;;10418409;28;20589;-46
2021/07/08 21:10:43;;;;;;;5.65;3.63;;;22.40;70.20;;;;;;10419309;28;20117;-46
2021/07/08 21:15:44;;;;;;;4.68;3.47;;;22.50;70.20;;;;;;10417786;28;20029;-46
2021/07/08 21:20:45;;;;;;;4.88;3.17;;;22.40;70.10;;;;;;10426925;28;20030;-46
2021/07/08 21:25:45;;;;;;;5.03;3.28;;;22.40;70.10;;;;;;10418533;28;20116;-47
2021/07/08 21:30:46;;;;;;;4.95;3.35;;;22.50;70.10;;;;;;10418855;28;20493;-47
2021/07/08 21:35:47;;;;;;;5.80;3.20;;;22.50;70.10;;;;;;10418141;28;20033;-46
2021/07/08 21:40:48;;;;;;;7.10;3.55;;;22.40;70.10;;;;;;10416255;28;20046;-46
2021/07/08 21:45:48;;;;;;;4.20;3.22;;;22.50;70.10;;;;;;10417557;28;20025;-46
2021/07/08 21:50:49;;;;;;;5.10;3.75;;;22.40;70.00;;;;;;10417156;28;20108;-46
2021/07/08 21:55:50;;;;;;;5.07;2.80;;;22.40;70.00;;;;;;10405688;28;20060;-46
2021/07/08 22:00:51;;;;;;;4.50;3.42;;;22.40;70.00;;;;;;10417072;28;20112;-48
2021/07/08 22:05:51;;;;;;;4.72;3.05;;;22.40;70.00;;;;;;10416463;28;20029;-49
2021/07/08 22:10:52;;;;;;;5.20;3.60;;;22.40;70.00;;;;;;10415395;28;20112;-47
2021/07/08 22:15:53;;;;;;;6.13;3.67;;;22.40;70.00;;;;;;10416246;28;20033;-46
2021/07/08 22:20:54;;;;;;;5.93;3.65;;;22.40;69.90;;;;;;10425024;28;20059;-46
2021/07/08 22:25:54;;;;;;;5.10;3.33;;;22.40;69.80;;;;;;10415795;28;20645;-46
2021/07/08 22:30:55;;;;;;;4.82;3.05;;;22.40;69.80;;;;;;10415630;28;20101;-46
2021/07/08 22:35:56;;;;;;;5.95;3.80;;;22.40;69.80;;;;;;10415968;28;20033;-47
2021/07/08 22:40:57;;;;;;;6.00;3.33;;;22.40;69.80;;;;;;10415610;28;20033;-46
2021/07/08 22:45:59;;;;;;;4.25;3.22;;;22.40;69.80;;;;;;10415469;28;20470;-47
2021/07/08 22:51:00;;;;;;;5.68;3.58;;;22.40;69.80;;;;;;10415026;28;20063;-45
2021/07/08 22:56:00;;;;;;;3.70;3.03;;;22.40;69.80;;;;;;10414880;28;20105;-49
2021/07/08 23:01:02;;;;;;;4.60;3.58;;;22.40;69.80;;;;;;10414613;28;20045;-47
2021/07/08 23:06:03;;;;;;;3.63;2.95;;;22.40;69.70;;;;;;10414560;28;20490;-47
2021/07/08 23:11:04;;;;;;;3.53;3.10;;;22.40;69.70;;;;;;10414433;28;20034;-46
2021/07/08 23:16:06;;;;;;;5.25;3.40;;;22.40;69.70;;;;;;10414351;28;20033;-47
2021/07/08 23:21:07;;;;;;;3.85;3.40;;;22.40;69.70;;;;;;10422922;28;20041;-46
2021/07/08 23:26:09;;;;;;;4.10;3.53;;;22.40;69.80;;;;;;10414221;28;20152;-46
2021/07/08 23:31:09;;;;;;;3.50;3.17;;;22.30;69.70;;;;;;10414089;28;20025;-45
2021/07/08 23:36:10;;;;;;;5.35;3.13;;;22.30;69.70;;;;;;10414142;28;20029;-46
2021/07/08 23:41:11;;;;;;;6.25;3.25;;;22.30;69.70;;;;;;10413663;28;20049;-45
